SHT1461 EGPH-EGLL
Flight info
| Callsign | SHT1461 |
|---|---|
| Flight time | 1h 2m |
| Altitude | 33000 |
| Route | GOSAM P600 FENIK L612 NAVSO DCT AKOMU DCT VAMEB DCT NUGRA |
| Aircraft | A321/M-SDE3FGHIRWY/LB1 |
Departure
| Time | 2026-05-07 15:37 |
|---|---|
| Airport | Edinburgh Airport (EGPH) |
Arrival
| Time | 2026-05-07 16:40 |
|---|---|
| Airport | London Heathrow Airport (EGLL) |
| Time | Latitude | Longitude | Altitude | Speed | Heading |
|---|---|---|---|---|---|
| 2026-05-07 15:13 | 55.94942 | -3.36359 | 113 ft | 0 kts | 148° |
| 2026-05-07 15:27 | 55.94948 | -3.36365 | 112 ft | 4 kts | 149° |
| 2026-05-07 15:27 | 55.94971 | -3.36389 | 112 ft | 4 kts | 151° |
| 2026-05-07 15:28 | 55.94993 | -3.36410 | 113 ft | 4 kts | 136° |
| 2026-05-07 15:28 | 55.95002 | -3.36442 | 115 ft | 4 kts | 65° |
| 2026-05-07 15:28 | 55.94987 | -3.36480 | 113 ft | 4 kts | 53° |
| 2026-05-07 15:28 | 55.94982 | -3.36492 | 113 ft | 0 kts | 58° |
| 2026-05-07 15:31 | 55.94983 | -3.36487 | 113 ft | 1 kts | 58° |
| 2026-05-07 15:31 | 55.94990 | -3.36466 | 112 ft | 1 kts | 59° |
| 2026-05-07 15:31 | 55.94997 | -3.36447 | 112 ft | 4 kts | 59° |
| 2026-05-07 15:31 | 55.95018 | -3.36396 | 115 ft | 6 kts | 41° |
| 2026-05-07 15:32 | 55.95069 | -3.36407 | 115 ft | 9 kts | 343° |
| 2026-05-07 15:32 | 55.95115 | -3.36340 | 114 ft | 10 kts | 58° |
| 2026-05-07 15:32 | 55.95144 | -3.36252 | 114 ft | 10 kts | 60° |
| 2026-05-07 15:32 | 55.95183 | -3.36134 | 113 ft | 12 kts | 57° |
| 2026-05-07 15:33 | 55.95228 | -3.36002 | 113 ft | 13 kts | 59° |
| 2026-05-07 15:33 | 55.95277 | -3.35858 | 115 ft | 14 kts | 59° |
| 2026-05-07 15:33 | 55.95318 | -3.35736 | 114 ft | 10 kts | 59° |
| 2026-05-07 15:33 | 55.95344 | -3.35660 | 114 ft | 3 kts | 58° |
| 2026-05-07 15:34 | 55.95351 | -3.35640 | 114 ft | 3 kts | 58° |
| 2026-05-07 15:34 | 55.95362 | -3.35564 | 115 ft | 12 kts | 87° |
| 2026-05-07 15:34 | 55.95368 | -3.35438 | 116 ft | 8 kts | 68° |
| 2026-05-07 15:34 | 55.95378 | -3.35407 | 114 ft | 0 kts | 59° |
| 2026-05-07 15:35 | 55.95382 | -3.35396 | 115 ft | 2 kts | 59° |
| 2026-05-07 15:35 | 55.95393 | -3.35370 | 115 ft | 3 kts | 40° |
| 2026-05-07 15:35 | 55.95427 | -3.35365 | 116 ft | 8 kts | 342° |
| 2026-05-07 15:36 | 55.95479 | -3.35416 | 114 ft | 9 kts | 330° |
| 2026-05-07 15:36 | 55.95542 | -3.35480 | 114 ft | 12 kts | 329° |
| 2026-05-07 15:36 | 55.95574 | -3.35541 | 113 ft | 5 kts | 269° |
| 2026-05-07 15:36 | 55.95554 | -3.35609 | 113 ft | 7 kts | 238° |
| 2026-05-07 15:37 | 55.95498 | -3.35776 | 113 ft | 41 kts | 239° |
| 2026-05-07 15:37 | 55.95239 | -3.36541 | 111 ft | 106 kts | 238° |
| 2026-05-07 15:37 | 55.94766 | -3.37929 | 170 ft | 153 kts | 238° |
| 2026-05-07 15:37 | 55.94209 | -3.39532 | 860 ft | 151 kts | 235° |
| 2026-05-07 15:38 | 55.93653 | -3.41140 | 1557 ft | 158 kts | 236° |
| 2026-05-07 15:38 | 55.93041 | -3.42877 | 1855 ft | 177 kts | 235° |
| 2026-05-07 15:38 | 55.92348 | -3.44844 | 2109 ft | 198 kts | 234° |
| 2026-05-07 15:38 | 55.91567 | -3.47050 | 2314 ft | 225 kts | 236° |
| 2026-05-07 15:39 | 55.90712 | -3.49506 | 2783 ft | 239 kts | 238° |
| 2026-05-07 15:39 | 55.90221 | -3.52377 | 3486 ft | 248 kts | 259° |
| 2026-05-07 15:39 | 55.89989 | -3.55437 | 4290 ft | 249 kts | 257° |
| 2026-05-07 15:39 | 55.89698 | -3.58496 | 5090 ft | 252 kts | 256° |
| 2026-05-07 15:40 | 55.89388 | -3.61581 | 5878 ft | 254 kts | 256° |
| 2026-05-07 15:40 | 55.89056 | -3.64676 | 6626 ft | 256 kts | 255° |
| 2026-05-07 15:40 | 55.88726 | -3.67816 | 7320 ft | 260 kts | 256° |
| 2026-05-07 15:40 | 55.88403 | -3.70991 | 8094 ft | 261 kts | 256° |
| 2026-05-07 15:41 | 55.88086 | -3.74202 | 8792 ft | 265 kts | 257° |
| 2026-05-07 15:41 | 55.87766 | -3.77452 | 9513 ft | 268 kts | 257° |
| 2026-05-07 15:41 | 55.87473 | -3.80430 | 10118 ft | 271 kts | 257° |
| 2026-05-07 15:41 | 55.87143 | -3.83795 | 10290 ft | 291 kts | 257° |
| 2026-05-07 15:42 | 55.86780 | -3.87476 | 10416 ft | 312 kts | 257° |
| 2026-05-07 15:42 | 55.86391 | -3.91393 | 10575 ft | 330 kts | 257° |
| 2026-05-07 15:42 | 55.85987 | -3.95457 | 11052 ft | 336 kts | 257° |
| 2026-05-07 15:42 | 55.85575 | -3.99578 | 11657 ft | 339 kts | 257° |
| 2026-05-07 15:43 | 55.85157 | -4.03735 | 12282 ft | 342 kts | 257° |
| 2026-05-07 15:43 | 55.84740 | -4.07857 | 12887 ft | 344 kts | 256° |
| 2026-05-07 15:43 | 55.83976 | -4.11917 | 13481 ft | 343 kts | 240° |
| 2026-05-07 15:43 | 55.82559 | -4.15249 | 14000 ft | 344 kts | 223° |
| 2026-05-07 15:44 | 55.80646 | -4.17841 | 14488 ft | 347 kts | 216° |
| 2026-05-07 15:44 | 55.78754 | -4.20219 | 14978 ft | 349 kts | 216° |
| 2026-05-07 15:44 | 55.76756 | -4.22711 | 15496 ft | 352 kts | 214° |
| 2026-05-07 15:44 | 55.74603 | -4.24820 | 15991 ft | 356 kts | 202° |
| 2026-05-07 15:45 | 55.72193 | -4.25934 | 16495 ft | 361 kts | 188° |
| 2026-05-07 15:45 | 55.69662 | -4.25935 | 16960 ft | 368 kts | 175° |
| 2026-05-07 15:45 | 55.67167 | -4.24787 | 17439 ft | 375 kts | 160° |
| 2026-05-07 15:45 | 55.64805 | -4.22758 | 17914 ft | 379 kts | 155° |
| 2026-05-07 15:46 | 55.60146 | -4.18218 | 18812 ft | 385 kts | 153° |
| 2026-05-07 15:46 | 55.57817 | -4.15863 | 19227 ft | 387 kts | 153° |
| 2026-05-07 15:46 | 55.55469 | -4.13501 | 19649 ft | 389 kts | 154° |
| 2026-05-07 15:47 | 55.53107 | -4.11154 | 20063 ft | 391 kts | 154° |
| 2026-05-07 15:47 | 55.50723 | -4.08809 | 20476 ft | 393 kts | 154° |
| 2026-05-07 15:47 | 55.48324 | -4.06468 | 20882 ft | 395 kts | 154° |
| 2026-05-07 15:47 | 55.45936 | -4.04149 | 21281 ft | 397 kts | 155° |
| 2026-05-07 15:48 | 55.43504 | -4.01798 | 21665 ft | 399 kts | 154° |
| 2026-05-07 15:48 | 55.41062 | -3.99440 | 22057 ft | 402 kts | 154° |
| 2026-05-07 15:48 | 55.38606 | -3.97069 | 22456 ft | 404 kts | 154° |
| 2026-05-07 15:48 | 55.36136 | -3.94688 | 22842 ft | 406 kts | 154° |
| 2026-05-07 15:49 | 55.33650 | -3.92289 | 23241 ft | 408 kts | 155° |
| 2026-05-07 15:49 | 55.31153 | -3.89877 | 23595 ft | 410 kts | 155° |
| 2026-05-07 15:49 | 55.28642 | -3.87457 | 23913 ft | 412 kts | 155° |
| 2026-05-07 15:49 | 55.26122 | -3.85037 | 24201 ft | 414 kts | 154° |
| 2026-05-07 15:50 | 55.23742 | -3.82758 | 24490 ft | 416 kts | 154° |
| 2026-05-07 15:50 | 55.21193 | -3.80319 | 24807 ft | 418 kts | 154° |
| 2026-05-07 15:50 | 55.18637 | -3.77873 | 25134 ft | 420 kts | 154° |
| 2026-05-07 15:50 | 55.16068 | -3.75420 | 25455 ft | 421 kts | 154° |
| 2026-05-07 15:51 | 55.13496 | -3.72970 | 25786 ft | 423 kts | 154° |
| 2026-05-07 15:51 | 55.10907 | -3.70506 | 26109 ft | 424 kts | 154° |
| 2026-05-07 15:51 | 55.08309 | -3.68039 | 26422 ft | 426 kts | 154° |
| 2026-05-07 15:51 | 55.05703 | -3.65564 | 26733 ft | 427 kts | 154° |
| 2026-05-07 15:52 | 55.03119 | -3.63111 | 27033 ft | 429 kts | 154° |
| 2026-05-07 15:52 | 55.00491 | -3.60621 | 27329 ft | 430 kts | 154° |
| 2026-05-07 15:52 | 54.97854 | -3.58127 | 27610 ft | 432 kts | 154° |
| 2026-05-07 15:52 | 54.95207 | -3.55624 | 27875 ft | 433 kts | 153° |
| 2026-05-07 15:53 | 54.92559 | -3.53124 | 28162 ft | 434 kts | 153° |
| 2026-05-07 15:53 | 54.89900 | -3.50619 | 28426 ft | 435 kts | 154° |
| 2026-05-07 15:53 | 54.87229 | -3.48112 | 28665 ft | 436 kts | 154° |
| 2026-05-07 15:53 | 54.84565 | -3.45615 | 28983 ft | 435 kts | 153° |
| 2026-05-07 15:54 | 54.81907 | -3.43125 | 29331 ft | 433 kts | 154° |
| 2026-05-07 15:54 | 54.79259 | -3.40650 | 29681 ft | 432 kts | 154° |
| 2026-05-07 15:54 | 54.76613 | -3.38186 | 30032 ft | 431 kts | 154° |
| 2026-05-07 15:54 | 54.73983 | -3.35738 | 30325 ft | 429 kts | 153° |
| 2026-05-07 15:55 | 54.71348 | -3.33331 | 30609 ft | 428 kts | 155° |
| 2026-05-07 15:55 | 54.68667 | -3.31115 | 30876 ft | 426 kts | 157° |
| 2026-05-07 15:55 | 54.65954 | -3.29065 | 31151 ft | 425 kts | 158° |
| 2026-05-07 15:55 | 54.63226 | -3.27103 | 31419 ft | 424 kts | 159° |
| 2026-05-07 15:56 | 54.60500 | -3.25169 | 31697 ft | 423 kts | 159° |
| 2026-05-07 15:56 | 54.57780 | -3.23221 | 31988 ft | 422 kts | 158° |
| 2026-05-07 15:56 | 54.55079 | -3.21251 | 32230 ft | 422 kts | 158° |
| 2026-05-07 15:56 | 54.52378 | -3.19254 | 32453 ft | 423 kts | 157° |
| 2026-05-07 15:57 | 54.49684 | -3.17245 | 32713 ft | 422 kts | 157° |
| 2026-05-07 15:57 | 54.47899 | -3.15909 | 32876 ft | 422 kts | 157° |
| 2026-05-07 15:57 | 54.45208 | -3.13892 | 32986 ft | 421 kts | 157° |
| 2026-05-07 15:58 | 54.39016 | -3.09271 | 33011 ft | 416 kts | 157° |
| 2026-05-07 15:58 | 54.34749 | -3.06109 | 33015 ft | 416 kts | 157° |
| 2026-05-07 15:59 | 54.29425 | -3.02185 | 33011 ft | 416 kts | 157° |
| 2026-05-07 15:59 | 54.24140 | -2.98308 | 33009 ft | 416 kts | 157° |
| 2026-05-07 16:00 | 54.18813 | -2.94405 | 33023 ft | 416 kts | 157° |
| 2026-05-07 16:00 | 54.13484 | -2.90508 | 33028 ft | 417 kts | 157° |
| 2026-05-07 16:01 | 54.08155 | -2.86608 | 33037 ft | 417 kts | 157° |
| 2026-05-07 16:01 | 54.02813 | -2.82726 | 33032 ft | 417 kts | 157° |
| 2026-05-07 16:02 | 53.97366 | -2.79336 | 33041 ft | 417 kts | 162° |
| 2026-05-07 16:02 | 53.91812 | -2.76404 | 33041 ft | 418 kts | 162° |
| 2026-05-07 16:03 | 53.86259 | -2.73465 | 33038 ft | 418 kts | 162° |
| 2026-05-07 16:03 | 53.80697 | -2.70532 | 33040 ft | 418 kts | 162° |
| 2026-05-07 16:04 | 53.75176 | -2.67624 | 33041 ft | 419 kts | 162° |
| 2026-05-07 16:04 | 53.69612 | -2.64696 | 33042 ft | 419 kts | 162° |
| 2026-05-07 16:05 | 53.64933 | -2.62171 | 33038 ft | 420 kts | 162° |
| 2026-05-07 16:05 | 53.59341 | -2.59281 | 33039 ft | 420 kts | 163° |
| 2026-05-07 16:06 | 53.53736 | -2.56424 | 33034 ft | 420 kts | 162° |
| 2026-05-07 16:06 | 53.48142 | -2.53538 | 33038 ft | 420 kts | 162° |
| 2026-05-07 16:07 | 53.42554 | -2.50641 | 33041 ft | 420 kts | 162° |
| 2026-05-07 16:07 | 53.36957 | -2.47751 | 33044 ft | 421 kts | 162° |
| 2026-05-07 16:08 | 53.31357 | -2.44872 | 33047 ft | 421 kts | 162° |
| 2026-05-07 16:08 | 53.25755 | -2.41994 | 33049 ft | 421 kts | 162° |
| 2026-05-07 16:09 | 53.20158 | -2.39131 | 33048 ft | 421 kts | 162° |
| 2026-05-07 16:09 | 53.14589 | -2.36281 | 33046 ft | 422 kts | 162° |
| 2026-05-07 16:10 | 53.08971 | -2.33422 | 33041 ft | 423 kts | 162° |
| 2026-05-07 16:10 | 53.03411 | -2.30419 | 33045 ft | 422 kts | 156° |
| 2026-05-07 16:11 | 52.98343 | -2.25519 | 33049 ft | 423 kts | 148° |
| 2026-05-07 16:11 | 52.93367 | -2.20281 | 33024 ft | 424 kts | 148° |
| 2026-05-07 16:12 | 52.88435 | -2.15132 | 33040 ft | 423 kts | 148° |
| 2026-05-07 16:12 | 52.83438 | -2.09934 | 33037 ft | 427 kts | 148° |
| 2026-05-07 16:13 | 52.78410 | -2.04701 | 33037 ft | 427 kts | 148° |
| 2026-05-07 16:13 | 52.73374 | -1.99471 | 32773 ft | 429 kts | 149° |
| 2026-05-07 16:13 | 52.70816 | -1.96828 | 31805 ft | 435 kts | 149° |
| 2026-05-07 16:14 | 52.68248 | -1.94180 | 31033 ft | 435 kts | 148° |
| 2026-05-07 16:14 | 52.65679 | -1.91531 | 30142 ft | 438 kts | 148° |
| 2026-05-07 16:14 | 52.63084 | -1.88852 | 29161 ft | 440 kts | 148° |
| 2026-05-07 16:14 | 52.60495 | -1.86178 | 28493 ft | 436 kts | 149° |
| 2026-05-07 16:15 | 52.57979 | -1.83584 | 27981 ft | 429 kts | 149° |
| 2026-05-07 16:15 | 52.55462 | -1.80999 | 27416 ft | 423 kts | 149° |
| 2026-05-07 16:15 | 52.52980 | -1.78455 | 26861 ft | 418 kts | 149° |
| 2026-05-07 16:15 | 52.50527 | -1.75944 | 26307 ft | 413 kts | 149° |
| 2026-05-07 16:16 | 52.48103 | -1.73461 | 25770 ft | 409 kts | 150° |
| 2026-05-07 16:16 | 52.45699 | -1.71004 | 25230 ft | 404 kts | 150° |
| 2026-05-07 16:16 | 52.43323 | -1.68582 | 24710 ft | 401 kts | 150° |
| 2026-05-07 16:16 | 52.40961 | -1.66177 | 24181 ft | 398 kts | 150° |
| 2026-05-07 16:17 | 52.38621 | -1.63800 | 23659 ft | 395 kts | 150° |
| 2026-05-07 16:17 | 52.36291 | -1.61438 | 23075 ft | 392 kts | 150° |
| 2026-05-07 16:17 | 52.33990 | -1.59104 | 22584 ft | 387 kts | 150° |
| 2026-05-07 16:17 | 52.31722 | -1.56802 | 22133 ft | 382 kts | 150° |
| 2026-05-07 16:18 | 52.29468 | -1.54514 | 21657 ft | 379 kts | 150° |
| 2026-05-07 16:18 | 52.27236 | -1.52255 | 21189 ft | 377 kts | 150° |
| 2026-05-07 16:18 | 52.25011 | -1.50006 | 20745 ft | 375 kts | 150° |
| 2026-05-07 16:18 | 52.22800 | -1.47778 | 20293 ft | 372 kts | 150° |
| 2026-05-07 16:19 | 52.20704 | -1.45306 | 19873 ft | 376 kts | 141° |
| 2026-05-07 16:19 | 52.18672 | -1.42455 | 19501 ft | 390 kts | 141° |
| 2026-05-07 16:19 | 52.16605 | -1.39557 | 19101 ft | 391 kts | 141° |
| 2026-05-07 16:19 | 52.14541 | -1.36673 | 18703 ft | 390 kts | 141° |
| 2026-05-07 16:20 | 52.12488 | -1.33818 | 18297 ft | 388 kts | 141° |
| 2026-05-07 16:20 | 52.10441 | -1.30978 | 17879 ft | 385 kts | 141° |
| 2026-05-07 16:20 | 52.08409 | -1.28162 | 17485 ft | 382 kts | 141° |
| 2026-05-07 16:20 | 52.06425 | -1.25411 | 17115 ft | 376 kts | 141° |
| 2026-05-07 16:21 | 52.04479 | -1.22708 | 16964 ft | 360 kts | 141° |
| 2026-05-07 16:21 | 52.02619 | -1.20121 | 16790 ft | 345 kts | 141° |
| 2026-05-07 16:21 | 52.00812 | -1.17619 | 16188 ft | 344 kts | 142° |
| 2026-05-07 16:21 | 51.98946 | -1.15072 | 15156 ft | 356 kts | 142° |
| 2026-05-07 16:22 | 51.97033 | -1.12486 | 14480 ft | 357 kts | 142° |
| 2026-05-07 16:22 | 51.95130 | -1.09924 | 13928 ft | 354 kts | 142° |
| 2026-05-07 16:22 | 51.93245 | -1.07396 | 13335 ft | 350 kts | 142° |
| 2026-05-07 16:22 | 51.91374 | -1.04891 | 12721 ft | 347 kts | 142° |
| 2026-05-07 16:23 | 51.89522 | -1.02418 | 12117 ft | 344 kts | 142° |
| 2026-05-07 16:23 | 51.87679 | -0.99959 | 11513 ft | 341 kts | 142° |
| 2026-05-07 16:23 | 51.85855 | -0.97530 | 10913 ft | 339 kts | 142° |
| 2026-05-07 16:23 | 51.84037 | -0.95118 | 10360 ft | 335 kts | 142° |
| 2026-05-07 16:24 | 51.82303 | -0.92821 | 10231 ft | 310 kts | 142° |
| 2026-05-07 16:24 | 51.80694 | -0.90684 | 10086 ft | 289 kts | 142° |
| 2026-05-07 16:24 | 51.79347 | -0.88353 | 9643 ft | 283 kts | 123° |
| 2026-05-07 16:24 | 51.78585 | -0.85447 | 9042 ft | 281 kts | 109° |
| 2026-05-07 16:25 | 51.77997 | -0.82446 | 8457 ft | 280 kts | 109° |
| 2026-05-07 16:25 | 51.77416 | -0.79458 | 7886 ft | 277 kts | 109° |
| 2026-05-07 16:25 | 51.76841 | -0.76505 | 7339 ft | 275 kts | 109° |
| 2026-05-07 16:25 | 51.76281 | -0.73638 | 7164 ft | 259 kts | 108° |
| 2026-05-07 16:26 | 51.75756 | -0.70943 | 6990 ft | 245 kts | 108° |
| 2026-05-07 16:26 | 51.75244 | -0.68337 | 6700 ft | 242 kts | 108° |
| 2026-05-07 16:26 | 51.74746 | -0.65807 | 6607 ft | 240 kts | 109° |
| 2026-05-07 16:26 | 51.74405 | -0.64075 | 6609 ft | 241 kts | 108° |
| 2026-05-07 16:27 | 51.73726 | -0.60623 | 6607 ft | 242 kts | 109° |
| 2026-05-07 16:27 | 51.73157 | -0.58109 | 6621 ft | 241 kts | 121° |
| 2026-05-07 16:27 | 51.72231 | -0.56281 | 6626 ft | 238 kts | 142° |
| 2026-05-07 16:27 | 51.70780 | -0.55041 | 6579 ft | 237 kts | 166° |
| 2026-05-07 16:28 | 51.69154 | -0.54762 | 6436 ft | 236 kts | 179° |
| 2026-05-07 16:28 | 51.67511 | -0.54684 | 6304 ft | 236 kts | 179° |
| 2026-05-07 16:28 | 51.65872 | -0.54597 | 6171 ft | 236 kts | 179° |
| 2026-05-07 16:28 | 51.64235 | -0.54511 | 6046 ft | 235 kts | 180° |
| 2026-05-07 16:29 | 51.62644 | -0.54980 | 5980 ft | 233 kts | 204° |
| 2026-05-07 16:29 | 51.61311 | -0.56428 | 5985 ft | 233 kts | 227° |
| 2026-05-07 16:29 | 51.60443 | -0.58621 | 5986 ft | 234 kts | 250° |
| 2026-05-07 16:29 | 51.60159 | -0.61083 | 5984 ft | 235 kts | 265° |
| 2026-05-07 16:30 | 51.60035 | -0.63701 | 5982 ft | 236 kts | 265° |
| 2026-05-07 16:30 | 51.59897 | -0.66332 | 5977 ft | 236 kts | 264° |
| 2026-05-07 16:30 | 51.59766 | -0.68900 | 5964 ft | 223 kts | 268° |
| 2026-05-07 16:30 | 51.59778 | -0.71290 | 5981 ft | 204 kts | 270° |
| 2026-05-07 16:31 | 51.59823 | -0.73501 | 5965 ft | 195 kts | 271° |
| 2026-05-07 16:31 | 51.59871 | -0.75673 | 5965 ft | 194 kts | 271° |
| 2026-05-07 16:31 | 51.59920 | -0.77829 | 5888 ft | 191 kts | 271° |
| 2026-05-07 16:31 | 51.59969 | -0.79963 | 5581 ft | 191 kts | 271° |
| 2026-05-07 16:32 | 51.60018 | -0.82095 | 5289 ft | 190 kts | 270° |
| 2026-05-07 16:32 | 51.59727 | -0.84105 | 5037 ft | 184 kts | 233° |
| 2026-05-07 16:32 | 51.58707 | -0.85279 | 5004 ft | 186 kts | 193° |
| 2026-05-07 16:32 | 51.57408 | -0.85316 | 5002 ft | 189 kts | 174° |
| 2026-05-07 16:33 | 51.56100 | -0.85006 | 5000 ft | 191 kts | 171° |
| 2026-05-07 16:33 | 51.54893 | -0.84686 | 4999 ft | 192 kts | 171° |
| 2026-05-07 16:33 | 51.53576 | -0.84333 | 4999 ft | 192 kts | 171° |
| 2026-05-07 16:33 | 51.52263 | -0.83974 | 5000 ft | 192 kts | 171° |
| 2026-05-07 16:34 | 51.50968 | -0.83619 | 4964 ft | 189 kts | 171° |
| 2026-05-07 16:34 | 51.49673 | -0.83261 | 4685 ft | 189 kts | 171° |
| 2026-05-07 16:34 | 51.48376 | -0.82907 | 4366 ft | 189 kts | 171° |
| 2026-05-07 16:34 | 51.47209 | -0.82065 | 4137 ft | 186 kts | 130° |
| 2026-05-07 16:35 | 51.46819 | -0.80122 | 3972 ft | 191 kts | 82° |
| 2026-05-07 16:35 | 51.47352 | -0.78211 | 3744 ft | 192 kts | 59° |
| 2026-05-07 16:35 | 51.47710 | -0.76203 | 3500 ft | 188 kts | 95° |
| 2026-05-07 16:35 | 51.47591 | -0.74106 | 3265 ft | 189 kts | 91° |
| 2026-05-07 16:36 | 51.47615 | -0.72018 | 3007 ft | 185 kts | 90° |
| 2026-05-07 16:36 | 51.47637 | -0.69980 | 2771 ft | 179 kts | 91° |
| 2026-05-07 16:36 | 51.47651 | -0.68033 | 2532 ft | 171 kts | 92° |
| 2026-05-07 16:36 | 51.47663 | -0.66132 | 2302 ft | 169 kts | 91° |
| 2026-05-07 16:37 | 51.47673 | -0.64255 | 2060 ft | 168 kts | 91° |
| 2026-05-07 16:37 | 51.47683 | -0.62387 | 1837 ft | 167 kts | 90° |
| 2026-05-07 16:37 | 51.47693 | -0.60524 | 1610 ft | 168 kts | 91° |
| 2026-05-07 16:37 | 51.47702 | -0.58671 | 1383 ft | 162 kts | 91° |
| 2026-05-07 16:38 | 51.47711 | -0.56895 | 1168 ft | 157 kts | 92° |
| 2026-05-07 16:38 | 51.47718 | -0.55157 | 952 ft | 154 kts | 90° |
| 2026-05-07 16:38 | 51.47725 | -0.53458 | 735 ft | 150 kts | 91° |
| 2026-05-07 16:38 | 51.47732 | -0.51805 | 529 ft | 147 kts | 91° |
| 2026-05-07 16:39 | 51.47738 | -0.50175 | 322 ft | 145 kts | 91° |
| 2026-05-07 16:39 | 51.47749 | -0.48571 | 145 ft | 144 kts | 91° |
| 2026-05-07 16:39 | 51.47749 | -0.47049 | 89 ft | 122 kts | 90° |
| 2026-05-07 16:39 | 51.47757 | -0.45979 | 89 ft | 70 kts | 90° |
| 2026-05-07 16:40 | 51.47761 | -0.45545 | 85 ft | 16 kts | 91° |
| 2026-05-07 16:40 | 51.47685 | -0.45465 | 86 ft | 14 kts | 178° |
| 2026-05-07 16:40 | 51.47610 | -0.45480 | 90 ft | 10 kts | 214° |
| 2026-05-07 16:40 | 51.47597 | -0.45548 | 86 ft | 10 kts | 266° |
| 2026-05-07 16:41 | 51.47595 | -0.45670 | 90 ft | 12 kts | 270° |
| 2026-05-07 16:41 | 51.47596 | -0.45806 | 88 ft | 13 kts | 270° |
| 2026-05-07 16:41 | 51.47595 | -0.45953 | 90 ft | 14 kts | 270° |
| 2026-05-07 16:41 | 51.47595 | -0.46111 | 90 ft | 15 kts | 270° |
| 2026-05-07 16:42 | 51.47595 | -0.46283 | 90 ft | 16 kts | 270° |
| 2026-05-07 16:42 | 51.47594 | -0.46468 | 86 ft | 17 kts | 269° |
| 2026-05-07 16:42 | 51.47593 | -0.46664 | 86 ft | 18 kts | 269° |
| 2026-05-07 16:42 | 51.47585 | -0.46870 | 89 ft | 19 kts | 256° |
| 2026-05-07 16:43 | 51.47582 | -0.47053 | 89 ft | 16 kts | 269° |
| 2026-05-07 16:43 | 51.47581 | -0.47243 | 90 ft | 18 kts | 269° |
| 2026-05-07 16:43 | 51.47580 | -0.47445 | 90 ft | 19 kts | 269° |
| 2026-05-07 16:43 | 51.47580 | -0.47659 | 87 ft | 20 kts | 270° |
| 2026-05-07 16:44 | 51.47580 | -0.47884 | 88 ft | 20 kts | 271° |
| 2026-05-07 16:44 | 51.47579 | -0.48093 | 90 ft | 18 kts | 268° |
| 2026-05-07 16:44 | 51.47577 | -0.48275 | 86 ft | 15 kts | 270° |
| 2026-05-07 16:44 | 51.47576 | -0.48428 | 88 ft | 12 kts | 258° |
| 2026-05-07 16:45 | 51.47516 | -0.48474 | 86 ft | 12 kts | 177° |
| 2026-05-07 16:45 | 51.47422 | -0.48474 | 86 ft | 14 kts | 180° |
| 2026-05-07 16:45 | 51.47311 | -0.48475 | 86 ft | 18 kts | 180° |
| 2026-05-07 16:45 | 51.47191 | -0.48471 | 90 ft | 16 kts | 180° |
| 2026-05-07 16:46 | 51.47087 | -0.48472 | 89 ft | 14 kts | 180° |
| 2026-05-07 16:46 | 51.46987 | -0.48471 | 89 ft | 16 kts | 180° |
| 2026-05-07 16:46 | 51.46891 | -0.48477 | 89 ft | 12 kts | 205° |
| 2026-05-07 16:46 | 51.46878 | -0.48578 | 86 ft | 8 kts | 270° |
| 2026-05-07 16:47 | 51.46878 | -0.48656 | 86 ft | 6 kts | 269° |
| 2026-05-07 16:47 | 51.46863 | -0.48678 | 89 ft | 1 kts | 204° |
| 2026-05-07 16:47 | 51.46853 | -0.48679 | 86 ft | 3 kts | 185° |
| 2026-05-07 16:47 | 51.46832 | -0.48680 | 86 ft | 2 kts | 180° |
| 2026-05-07 16:48 | 51.46828 | -0.48680 | 86 ft | 0 kts | 180° |
| 2026-05-07 16:49 | 51.46827 | -0.48680 | 86 ft | 0 kts | 180° |